createdAt,value
2023-01-08T00:02:18.203Z,5.72
2023-01-08T00:04:45.448Z,4.60
2023-01-08T00:07:11.980Z,4.68
2023-01-08T00:09:39.202Z,8.10
2023-01-08T00:12:06.084Z,6.13
2023-01-08T00:14:36.193Z,5.53
2023-01-08T00:17:04.478Z,5.35
2023-01-08T00:19:31.239Z,6.03
2023-01-08T00:21:57.972Z,5.53
2023-01-08T00:24:24.554Z,6.25
2023-01-08T00:26:51.148Z,4.32
2023-01-08T00:29:17.795Z,4.82
2023-01-08T00:31:45.369Z,4.35
2023-01-08T00:34:12.113Z,3.92
2023-01-08T00:36:38.658Z,4.15
2023-01-08T00:39:05.149Z,4.22
2023-01-08T00:41:31.685Z,4.93
2023-01-08T00:43:58.269Z,4.18
2023-01-08T00:46:24.842Z,3.40
2023-01-08T00:48:52.202Z,4.00
2023-01-08T00:51:18.826Z,5.32
2023-01-08T00:53:45.321Z,4.13
2023-01-08T00:56:11.842Z,4.18
2023-01-08T00:58:39.351Z,3.47
2023-01-08T01:01:13.579Z,4.15
2023-01-08T01:03:40.494Z,5.55
2023-01-08T01:06:07.421Z,4.70
2023-01-08T01:08:35.179Z,4.25
2023-01-08T01:11:06.997Z,4.22
2023-01-08T01:13:33.460Z,4.50
2023-01-08T01:16:01.483Z,4.95
2023-01-08T01:18:28.259Z,5.38
2023-01-08T01:20:54.939Z,5.32
2023-01-08T01:23:21.518Z,4.20
2023-01-08T01:25:48.043Z,4.22
2023-01-08T01:28:15.290Z,7.18
2023-01-08T01:30:41.954Z,4.63
2023-01-08T01:33:08.459Z,4.45
2023-01-08T01:35:34.968Z,6.78
2023-01-08T01:38:01.492Z,5.15
2023-01-08T01:40:28.032Z,5.20
2023-01-08T01:42:54.622Z,4.78
2023-01-08T01:45:23.479Z,3.95
2023-01-08T01:48:02.898Z,5.15
2023-01-08T01:50:31.831Z,5.53
2023-01-08T01:53:09.513Z,4.20
2023-01-08T01:55:41.268Z,4.47
2023-01-08T01:58:18.206Z,3.97
2023-01-08T02:00:45.005Z,4.43
2023-01-08T02:03:14.043Z,4.78
2023-01-08T02:06:25.217Z,3.33
2023-01-08T02:09:00.499Z,3.92
2023-01-08T02:11:34.287Z,3.78
2023-01-08T02:14:07.186Z,5.18
2023-01-08T02:16:40.281Z,3.30
2023-01-08T02:19:14.988Z,3.92
2023-01-08T02:21:41.441Z,5.25
2023-01-08T02:24:18.969Z,3.85
2023-01-08T02:26:46.364Z,2.92
2023-01-08T02:29:19.883Z,4.03
2023-01-08T02:31:46.848Z,4.55
2023-01-08T02:34:13.845Z,3.08
2023-01-08T02:36:44.255Z,3.45
2023-01-08T02:39:32.371Z,2.95
2023-01-08T02:42:06.055Z,3.63
2023-01-08T02:44:59.694Z,3.28
2023-01-08T02:47:31.314Z,3.33
2023-01-08T02:50:15.746Z,3.25
2023-01-08T02:52:52.664Z,3.28
2023-01-08T02:55:21.193Z,3.20
2023-01-08T02:57:48.393Z,2.83
2023-01-08T03:00:15.691Z,4.00
2023-01-08T03:02:43.069Z,3.05
2023-01-08T03:05:16.013Z,3.15
2023-01-08T03:07:42.908Z,3.85
2023-01-08T03:10:09.882Z,5.15
2023-01-08T03:12:45.032Z,3.10
2023-01-08T03:15:14.732Z,2.60
2023-01-08T03:17:46.078Z,3.22
2023-01-08T03:20:16.008Z,2.42
2023-01-08T03:22:45.025Z,2.88
2023-01-08T03:25:12.526Z,2.70
2023-01-08T03:27:43.641Z,2.67
2023-01-08T03:30:11.104Z,3.17
2023-01-08T03:32:39.552Z,2.72
2023-01-08T03:35:11.057Z,3.95
2023-01-08T03:37:39.848Z,3.72
2023-01-08T03:40:10.711Z,2.40
2023-01-08T03:42:37.443Z,3.05
2023-01-08T03:47:54.936Z,2.42
2023-01-08T03:50:29.926Z,3.00
2023-01-08T03:52:56.850Z,3.60
2023-01-08T03:55:24.218Z,2.80
2023-01-08T03:57:50.953Z,3.40
2023-01-08T04:00:17.854Z,2.83
2023-01-08T04:02:44.406Z,2.40
2023-01-08T04:05:11.992Z,3.08
2023-01-08T04:07:38.970Z,2.60
2023-01-08T04:10:06.127Z,2.75
2023-01-08T04:12:32.686Z,3.38
2023-01-08T04:15:00.111Z,2.92
2023-01-08T04:17:26.746Z,2.22
2023-01-08T04:19:53.610Z,2.63
2023-01-08T04:22:20.150Z,2.50
2023-01-08T04:24:46.677Z,3.25
2023-01-08T04:27:13.225Z,3.47
2023-01-08T04:29:39.789Z,3.67
2023-01-08T04:32:06.410Z,2.88
2023-01-08T04:34:35.928Z,4.07
2023-01-08T04:37:03.167Z,2.78
2023-01-08T04:39:29.826Z,3.17
2023-01-08T04:41:56.430Z,2.25
2023-01-08T04:44:22.928Z,2.85
2023-01-08T04:46:49.477Z,2.95
2023-01-08T04:49:16.093Z,2.30
2023-01-08T04:51:42.621Z,5.05
2023-01-08T04:54:09.614Z,2.40
2023-01-08T04:56:36.141Z,2.45
2023-01-08T04:59:03.009Z,4.30
2023-01-08T05:01:30.456Z,2.53
2023-01-08T05:03:59.745Z,3.00
2023-01-08T05:06:28.025Z,2.22
2023-01-08T05:08:54.548Z,2.40
2023-01-08T05:11:21.536Z,2.70
2023-01-08T05:13:49.026Z,3.33
2023-01-08T05:16:16.166Z,2.08
2023-01-08T05:18:43.517Z,2.08
2023-01-08T05:21:11.151Z,2.42
2023-01-08T05:23:37.806Z,2.20
2023-01-08T05:26:06.067Z,2.33
2023-01-08T05:28:33.292Z,2.70
2023-01-08T05:31:00.723Z,2.33
2023-01-08T05:33:27.674Z,2.10
2023-01-08T05:35:54.353Z,2.63
2023-01-08T05:38:20.937Z,1.92
2023-01-08T05:40:47.429Z,2.22
2023-01-08T05:43:13.971Z,2.17
2023-01-08T05:45:40.504Z,2.33
2023-01-08T05:48:07.463Z,1.92
2023-01-08T05:50:34.507Z,1.75
2023-01-08T05:53:01.375Z,2.55
2023-01-08T05:55:27.984Z,1.80
2023-01-08T05:57:54.541Z,2.83
2023-01-08T06:00:21.134Z,1.42
2023-01-08T06:02:48.445Z,2.75
2023-01-08T06:05:15.295Z,8.68
2023-01-08T06:07:41.940Z,1.88
2023-01-08T06:10:08.985Z,1.75
2023-01-08T06:12:35.510Z,1.63
2023-01-08T06:15:02.096Z,2.20
2023-01-08T06:17:28.776Z,1.60
2023-01-08T06:19:55.274Z,1.52
2023-01-08T06:22:21.757Z,1.42
2023-01-08T06:24:48.283Z,1.70
2023-01-08T06:27:14.806Z,1.73
2023-01-08T06:29:41.302Z,2.33
2023-01-08T06:32:11.186Z,2.05
2023-01-08T06:34:37.704Z,3.60
2023-01-08T06:37:04.240Z,1.50
2023-01-08T06:39:30.746Z,2.58
2023-01-08T06:41:57.282Z,1.70
2023-01-08T06:44:23.889Z,1.90
2023-01-08T06:46:50.476Z,1.70
2023-01-08T06:49:17.740Z,1.70
2023-01-08T06:51:44.258Z,2.17
2023-01-08T06:54:13.413Z,2.30
2023-01-08T06:56:52.986Z,2.92
2023-01-08T06:59:20.103Z,1.58
2023-01-08T07:01:46.799Z,1.65
2023-01-08T07:04:13.420Z,1.73
2023-01-08T07:06:39.946Z,1.92
2023-01-08T07:09:15.401Z,2.00
2023-01-08T07:11:42.397Z,3.35
2023-01-08T07:14:08.883Z,2.72
2023-01-08T07:16:35.941Z,2.47
2023-01-08T07:19:02.504Z,2.80
2023-01-08T07:21:29.098Z,2.78
2023-01-08T07:23:55.636Z,3.88
2023-01-08T07:26:22.225Z,3.15
2023-01-08T07:28:48.747Z,2.55
2023-01-08T07:31:15.340Z,2.05
2023-01-08T07:33:41.934Z,2.20
2023-01-08T07:36:08.816Z,2.00
2023-01-08T07:38:35.517Z,2.15
2023-01-08T07:41:02.112Z,2.38
2023-01-08T07:43:30.122Z,2.28
2023-01-08T07:45:57.715Z,2.03
2023-01-08T07:48:24.275Z,3.17
2023-01-08T07:50:50.995Z,2.45
2023-01-08T07:53:17.856Z,2.40
2023-01-08T07:55:44.684Z,4.70
2023-01-08T07:58:12.970Z,3.53
2023-01-08T08:00:39.687Z,3.10
2023-01-08T08:03:08.038Z,3.63
2023-01-08T08:05:35.100Z,2.13
2023-01-08T08:08:01.903Z,2.65
2023-01-08T08:10:28.703Z,2.30
2023-01-08T08:12:55.234Z,2.83
2023-01-08T08:15:21.870Z,2.90
2023-01-08T08:17:48.986Z,2.40
2023-01-08T08:20:15.858Z,1.98
2023-01-08T08:22:42.803Z,2.83
2023-01-08T08:25:10.029Z,5.47
2023-01-08T08:27:36.978Z,2.35
2023-01-08T08:30:04.804Z,3.75
2023-01-08T08:32:31.387Z,2.47
2023-01-08T08:34:58.169Z,2.53
2023-01-08T08:37:24.733Z,1.70
2023-01-08T08:39:51.289Z,2.53
2023-01-08T08:42:18.002Z,2.88
2023-01-08T08:44:44.591Z,2.10
2023-01-08T08:47:12.186Z,2.20
2023-01-08T08:49:39.966Z,2.28
2023-01-08T08:52:06.807Z,2.60
2023-01-08T08:54:33.566Z,3.15
2023-01-08T08:57:00.091Z,2.78
2023-01-08T09:01:51.946Z,2.85
2023-01-08T09:04:18.719Z,3.55
2023-01-08T09:06:45.221Z,2.05
2023-01-08T09:09:11.871Z,2.08
2023-01-08T09:11:38.490Z,3.60
2023-01-08T09:14:05.093Z,2.65
2023-01-08T09:16:33.116Z,2.20
2023-01-08T09:18:59.720Z,3.42
2023-01-08T09:21:26.254Z,2.92
2023-01-08T09:23:52.945Z,2.88
2023-01-08T09:26:19.646Z,3.78
2023-01-08T09:28:46.132Z,2.67
2023-01-08T09:31:12.702Z,4.80
2023-01-08T09:33:39.435Z,3.70
2023-01-08T09:36:10.908Z,3.00
2023-01-08T09:38:37.415Z,2.33
2023-01-08T09:41:13.508Z,3.42
2023-01-08T09:43:43.945Z,3.65
2023-01-08T09:46:12.135Z,2.78
2023-01-08T09:48:41.420Z,3.00
2023-01-08T09:51:16.062Z,2.83
2023-01-08T09:53:44.007Z,2.67
2023-01-08T09:56:19.787Z,2.40
2023-01-08T09:58:51.959Z,3.83
2023-01-08T10:01:21.930Z,3.55
2023-01-08T10:03:56.241Z,2.80
2023-01-08T10:06:23.791Z,2.38
2023-01-08T10:08:51.015Z,3.38
2023-01-08T10:11:18.051Z,2.30
2023-01-08T10:13:49.852Z,3.30
2023-01-08T10:16:33.754Z,2.92
2023-01-08T10:19:00.389Z,2.58
2023-01-08T10:21:38.371Z,3.05
2023-01-08T10:24:05.108Z,2.20
2023-01-08T10:26:36.499Z,2.50
2023-01-08T10:29:17.458Z,2.17
2023-01-08T10:31:50.259Z,2.90
2023-01-08T10:34:40.119Z,3.33
2023-01-08T10:37:29.727Z,2.85
2023-01-08T10:40:19.027Z,3.05
2023-01-08T10:42:46.281Z,2.47
2023-01-08T10:45:20.479Z,2.40
2023-01-08T10:47:48.392Z,2.67
2023-01-08T10:50:24.660Z,2.92
2023-01-08T10:53:00.682Z,2.90
2023-01-08T10:55:31.898Z,3.03
2023-01-08T10:58:26.697Z,2.67
2023-01-08T11:00:53.227Z,1.92
2023-01-08T11:03:32.272Z,2.38
2023-01-08T11:05:59.060Z,1.95
2023-01-08T11:08:25.744Z,2.10
2023-01-08T11:10:57.439Z,2.05
2023-01-08T11:13:24.463Z,3.85
2023-01-08T11:16:10.603Z,2.05
2023-01-08T11:18:46.066Z,2.33
2023-01-08T11:21:24.806Z,1.90
2023-01-08T11:24:18.077Z,3.20
2023-01-08T11:26:50.555Z,2.25
2023-01-08T11:29:28.605Z,2.90
2023-01-08T11:32:24.108Z,4.03
2023-01-08T11:35:01.544Z,2.15
2023-01-08T11:37:35.751Z,2.78
2023-01-08T11:40:02.472Z,3.40
2023-01-08T11:42:47.985Z,2.95
2023-01-08T11:45:29.817Z,3.30
2023-01-08T11:48:14.667Z,4.97
2023-01-08T11:50:49.197Z,3.97
2023-01-08T11:53:18.809Z,3.92
2023-01-08T11:56:12.759Z,4.03
2023-01-08T11:58:49.257Z,4.75
2023-01-08T12:01:42.335Z,3.70
2023-01-08T12:04:08.848Z,3.80
2023-01-08T12:07:05.193Z,3.85
2023-01-08T12:09:49.017Z,3.70
2023-01-08T12:12:28.424Z,4.15
2023-01-08T12:15:00.973Z,3.00
2023-01-08T12:18:08.929Z,3.42
2023-01-08T12:20:38.451Z,4.63
2023-01-08T12:23:35.698Z,4.07
2023-01-08T12:26:20.605Z,3.30
2023-01-08T12:29:05.567Z,3.42
2023-01-08T12:32:11.168Z,4.70
2023-01-08T12:35:05.993Z,4.95
2023-01-08T12:38:05.462Z,3.75
2023-01-08T12:40:52.668Z,3.90
2023-01-08T12:43:23.165Z,4.43
2023-01-08T12:45:53.034Z,4.40
2023-01-08T12:48:22.814Z,4.40
2023-01-08T12:51:10.659Z,4.78
2023-01-08T12:53:45.904Z,4.70
2023-01-08T12:56:25.303Z,3.90
2023-01-08T12:59:10.601Z,3.92
2023-01-08T13:02:02.613Z,4.97
2023-01-08T13:04:48.377Z,4.40
2023-01-08T13:07:30.732Z,5.43
2023-01-08T13:10:01.893Z,5.13
2023-01-08T13:12:35.997Z,4.55
2023-01-08T13:15:03.308Z,5.28
2023-01-08T13:17:30.064Z,4.53
2023-01-08T13:20:07.339Z,4.45
2023-01-08T13:22:36.101Z,4.85
2023-01-08T13:25:26.116Z,4.53
2023-01-08T13:27:53.069Z,5.93
2023-01-08T13:30:43.064Z,5.85
2023-01-08T13:33:26.319Z,8.23
2023-01-08T13:36:12.476Z,11.60
2023-01-08T13:38:43.482Z,9.52
2023-01-08T13:41:27.972Z,9.60
2023-01-08T13:44:00.550Z,7.78
2023-01-08T13:46:27.752Z,7.95
2023-01-08T13:49:01.535Z,8.57
2023-01-08T13:51:48.629Z,8.60
2023-01-08T13:54:15.232Z,6.40
2023-01-08T13:56:42.812Z,6.55
2023-01-08T13:59:34.512Z,6.60
2023-01-08T14:02:01.727Z,10.88
2023-01-08T14:04:28.614Z,7.35
2023-01-08T14:07:12.280Z,7.45
2023-01-08T14:09:38.852Z,6.90
2023-01-08T14:12:05.513Z,6.07
2023-01-08T14:14:32.180Z,6.18
2023-01-08T14:16:58.988Z,6.25
2023-01-08T14:19:26.304Z,5.80
2023-01-08T14:21:55.252Z,6.10
2023-01-08T14:24:23.896Z,7.30
2023-01-08T14:26:58.798Z,5.45
2023-01-08T14:29:27.795Z,4.65
2023-01-08T14:31:57.533Z,4.25
2023-01-08T14:34:26.954Z,4.13
2023-01-08T14:36:55.181Z,6.82
2023-01-08T14:39:32.244Z,4.45
2023-01-08T14:42:20.561Z,5.20
2023-01-08T14:44:54.385Z,3.80
2023-01-08T14:47:21.029Z,4.10
2023-01-08T14:49:53.203Z,4.70
2023-01-08T14:52:21.287Z,3.78
2023-01-08T14:54:50.893Z,4.68
2023-01-08T14:57:18.221Z,4.22
2023-01-08T14:59:51.602Z,4.18
2023-01-08T15:02:31.753Z,3.30
2023-01-08T15:05:15.329Z,3.42
2023-01-08T15:07:44.769Z,3.42
2023-01-08T15:10:41.775Z,3.25
2023-01-08T15:13:32.580Z,5.18
2023-01-08T15:16:09.878Z,6.28
2023-01-08T15:18:43.081Z,4.03
2023-01-08T15:21:10.382Z,5.22
2023-01-08T15:23:42.084Z,4.53
2023-01-08T15:26:13.266Z,6.05
2023-01-08T15:28:57.838Z,4.60
2023-01-08T15:31:40.582Z,5.60
2023-01-08T15:34:08.349Z,5.78
2023-01-08T15:36:34.953Z,6.18
2023-01-08T15:39:01.540Z,5.32
2023-01-08T15:41:57.359Z,4.72
2023-01-08T15:44:25.185Z,5.82
2023-01-08T15:46:52.488Z,5.13
2023-01-08T15:49:19.108Z,6.30
2023-01-08T15:51:48.635Z,4.20
2023-01-08T15:54:15.706Z,5.25
2023-01-08T15:56:42.500Z,5.40
2023-01-08T15:59:09.192Z,4.28
2023-01-08T16:01:35.939Z,4.68
2023-01-08T16:04:02.633Z,4.85
2023-01-08T16:06:29.398Z,4.70
2023-01-08T16:09:00.049Z,3.95
2023-01-08T16:11:27.099Z,4.47
2023-01-08T16:13:53.798Z,4.15
2023-01-08T16:16:21.425Z,5.38
2023-01-08T16:18:48.150Z,4.10
2023-01-08T16:21:14.857Z,4.32
2023-01-08T16:23:41.629Z,5.13
2023-01-08T16:26:10.663Z,4.03
2023-01-08T16:28:37.836Z,3.92
2023-01-08T16:31:05.115Z,4.25
2023-01-08T16:33:31.726Z,4.95
2023-01-08T16:35:58.974Z,4.10
2023-01-08T16:38:25.939Z,3.75
2023-01-08T16:40:53.611Z,3.92
2023-01-08T16:43:20.210Z,4.10
2023-01-08T16:45:47.606Z,5.72
2023-01-08T16:48:15.260Z,4.47
2023-01-08T16:50:42.897Z,4.93
2023-01-08T16:53:09.713Z,5.15
2023-01-08T16:55:40.748Z,3.97
2023-01-08T16:58:08.433Z,4.38
2023-01-08T17:00:39.126Z,4.60
2023-01-08T17:03:06.303Z,4.30
2023-01-08T17:05:33.209Z,4.60
2023-01-08T17:08:00.907Z,4.40
2023-01-08T17:10:27.496Z,7.35
2023-01-08T17:12:54.174Z,3.95
2023-01-08T17:15:20.757Z,4.38
2023-01-08T17:17:47.502Z,4.10
2023-01-08T17:20:14.249Z,5.13
2023-01-08T17:22:40.845Z,3.85
2023-01-08T17:25:07.783Z,3.72
2023-01-08T17:27:35.159Z,3.22
2023-01-08T17:30:02.019Z,3.28
2023-01-08T17:32:31.511Z,3.10
2023-01-08T17:34:58.178Z,3.17
2023-01-08T17:37:24.728Z,3.17
2023-01-08T17:39:51.220Z,3.63
2023-01-08T17:42:30.394Z,3.42
2023-01-08T17:45:00.200Z,2.90
2023-01-08T17:47:26.963Z,4.13
2023-01-08T17:49:55.251Z,3.28
2023-01-08T17:52:23.970Z,3.28
2023-01-08T17:54:51.808Z,3.05
2023-01-08T17:57:19.891Z,3.50
2023-01-08T17:59:46.894Z,3.40
2023-01-08T18:02:16.202Z,2.53
2023-01-08T18:04:44.071Z,3.20
2023-01-08T18:07:10.746Z,2.20
2023-01-08T18:09:37.275Z,4.53
2023-01-08T18:12:04.013Z,2.10
2023-01-08T18:14:30.617Z,3.35
2023-01-08T18:16:59.111Z,2.92
2023-01-08T18:19:26.311Z,2.40
2023-01-08T18:21:52.906Z,1.88
2023-01-08T18:24:19.467Z,2.08
2023-01-08T18:26:46.637Z,2.67
2023-01-08T18:29:13.385Z,2.28
2023-01-08T18:31:40.789Z,1.92
2023-01-08T18:34:09.001Z,1.88
2023-01-08T18:36:36.054Z,1.73
2023-01-08T18:39:02.969Z,2.33
2023-01-08T18:41:48.423Z,3.10
2023-01-08T18:44:15.058Z,2.30
2023-01-08T18:46:41.616Z,2.30
2023-01-08T18:49:08.280Z,2.30
2023-01-08T18:51:34.945Z,2.50
2023-01-08T18:54:03.053Z,2.65
2023-01-08T18:56:32.156Z,2.58
2023-01-08T18:58:59.237Z,2.45
2023-01-08T19:01:26.008Z,3.42
2023-01-08T19:03:53.048Z,2.38
2023-01-08T19:06:19.670Z,2.40
2023-01-08T19:08:46.530Z,2.75
2023-01-08T19:11:13.915Z,2.17
2023-01-08T19:13:40.939Z,2.20
2023-01-08T19:16:09.475Z,2.13
2023-01-08T19:18:36.634Z,3.38
2023-01-08T19:21:05.757Z,2.55
2023-01-08T19:23:32.350Z,2.67
2023-01-08T19:25:58.982Z,3.33
2023-01-08T19:28:25.581Z,2.53
2023-01-08T19:30:59.105Z,2.47
2023-01-08T19:33:26.025Z,1.77
2023-01-08T19:35:52.541Z,2.22
2023-01-08T19:38:20.512Z,2.17
2023-01-08T19:40:47.093Z,1.70
2023-01-08T19:43:32.556Z,2.28
2023-01-08T19:46:06.273Z,5.85
2023-01-08T19:48:33.329Z,2.67
2023-01-08T19:51:00.165Z,2.30
2023-01-08T19:53:26.740Z,2.90
2023-01-08T19:55:53.351Z,2.30
2023-01-08T19:58:20.567Z,2.50
2023-01-08T20:00:47.265Z,2.58
2023-01-08T20:03:13.931Z,3.05
2023-01-08T20:05:42.054Z,2.22
2023-01-08T20:08:08.655Z,2.38
2023-01-08T20:10:35.916Z,2.40
2023-01-08T20:13:04.279Z,2.38
2023-01-08T20:15:34.672Z,2.83
2023-01-08T20:18:01.296Z,2.85
2023-01-08T20:20:28.051Z,2.63
2023-01-08T20:22:54.618Z,3.35
2023-01-08T20:25:21.143Z,2.13
2023-01-08T20:27:47.642Z,3.65
2023-01-08T20:30:14.801Z,2.33
2023-01-08T20:32:41.984Z,2.95
2023-01-08T20:35:08.929Z,2.45
2023-01-08T20:37:36.013Z,2.90
2023-01-08T20:40:02.609Z,2.53
2023-01-08T20:42:34.090Z,1.95
2023-01-08T20:45:01.004Z,2.00
2023-01-08T20:47:27.565Z,2.00
2023-01-08T20:49:54.049Z,3.05
2023-01-08T20:52:20.812Z,2.38
2023-01-08T20:54:47.439Z,2.30
2023-01-08T20:57:14.052Z,2.03
2023-01-08T20:59:40.660Z,2.85
2023-01-08T21:02:07.476Z,1.83
2023-01-08T21:04:34.237Z,1.83
2023-01-08T21:07:00.953Z,1.90
2023-01-08T21:09:28.476Z,2.20
2023-01-08T21:11:55.096Z,2.10
2023-01-08T21:14:21.766Z,2.10
2023-01-08T21:16:48.348Z,2.13
2023-01-08T21:19:16.276Z,2.05
2023-01-08T21:21:42.943Z,1.88
2023-01-08T21:24:12.090Z,1.90
2023-01-08T21:26:39.144Z,2.83
2023-01-08T21:29:06.885Z,2.13
2023-01-08T21:31:34.351Z,2.70
2023-01-08T21:34:02.195Z,1.98
2023-01-08T21:36:31.323Z,2.80
2023-01-08T21:38:59.072Z,2.53
2023-01-08T21:41:45.417Z,2.75
2023-01-08T21:44:41.578Z,2.05
2023-01-08T21:47:10.977Z,2.88
2023-01-08T21:49:37.805Z,2.67
2023-01-08T21:52:24.100Z,4.22
2023-01-08T21:54:51.228Z,3.55
2023-01-08T21:57:17.827Z,3.70
2023-01-08T21:59:44.415Z,3.75
2023-01-08T22:02:19.007Z,2.40
2023-01-08T22:04:45.932Z,2.95
2023-01-08T22:07:13.228Z,3.22
2023-01-08T22:09:39.802Z,3.63
2023-01-08T22:12:07.138Z,2.97
2023-01-08T22:14:34.686Z,2.47
2023-01-08T22:17:03.964Z,2.53
2023-01-08T22:19:30.635Z,2.42
2023-01-08T22:21:57.163Z,2.72
2023-01-08T22:24:23.832Z,2.60
2023-01-08T22:26:50.400Z,3.15
2023-01-08T22:29:17.171Z,3.30
2023-01-08T22:31:43.839Z,2.33
2023-01-08T22:34:14.198Z,2.35
2023-01-08T22:36:40.688Z,2.28
2023-01-08T22:39:07.241Z,1.90
2023-01-08T22:41:33.783Z,2.20
2023-01-08T22:44:00.455Z,2.30
2023-01-08T22:46:28.682Z,2.20
2023-01-08T22:48:55.301Z,2.55
2023-01-08T22:51:28.204Z,2.10
2023-01-08T22:53:56.628Z,3.05
2023-01-08T22:56:23.897Z,1.90
2023-01-08T22:58:50.933Z,2.50
2023-01-08T23:01:23.201Z,1.80
2023-01-08T23:03:52.550Z,1.70
2023-01-08T23:06:20.691Z,2.90
2023-01-08T23:08:47.436Z,1.52
2023-01-08T23:11:15.931Z,1.95
2023-01-08T23:13:42.900Z,2.35
2023-01-08T23:16:12.480Z,1.88
2023-01-08T23:18:39.781Z,2.30
2023-01-08T23:21:17.754Z,2.25
2023-01-08T23:23:44.912Z,2.20
2023-01-08T23:26:20.393Z,2.15
2023-01-08T23:28:47.749Z,1.83
2023-01-08T23:31:17.202Z,2.58
2023-01-08T23:33:43.809Z,2.17
2023-01-08T23:36:10.828Z,2.08
2023-01-08T23:38:37.375Z,2.00
2023-01-08T23:41:06.937Z,3.63
2023-01-08T23:43:33.490Z,2.13
2023-01-08T23:46:06.949Z,2.40
2023-01-08T23:48:34.065Z,1.75
2023-01-08T23:51:00.804Z,1.92
2023-01-08T23:53:28.515Z,2.10
2023-01-08T23:55:55.063Z,2.30
2023-01-08T23:58:21.861Z,2.88
